sensor_id;sensor_type;location;lat;lon;timestamp;pressure;altitude;pressure_sealevel;temperature;humidity
63006;BME280;53704;52.532;6.426;2023-03-20T00:01:29;101850.84;;;7.90;100.00
63006;BME280;53704;52.532;6.426;2023-03-20T00:03:55;101846.69;;;8.09;100.00
63006;BME280;53704;52.532;6.426;2023-03-20T00:06:23;101841.81;;;8.25;100.00
63006;BME280;53704;52.532;6.426;2023-03-20T00:08:51;101834.50;;;8.05;100.00
63006;BME280;53704;52.532;6.426;2023-03-20T00:13:56;101846.22;;;7.92;100.00
63006;BME280;53704;52.532;6.426;2023-03-20T00:16:23;101840.63;;;8.07;100.00
63006;BME280;53704;52.532;6.426;2023-03-20T00:18:49;101840.13;;;7.79;100.00
63006;BME280;53704;52.532;6.426;2023-03-20T00:21:18;101845.63;;;8.11;100.00
63006;BME280;53704;52.532;6.426;2023-03-20T00:23:44;101841.34;;;7.86;100.00
63006;BME280;53704;52.532;6.426;2023-03-20T00:26:14;101849.38;;;7.86;100.00
63006;BME280;53704;52.532;6.426;2023-03-20T00:28:44;101849.28;;;7.99;100.00
63006;BME280;53704;52.532;6.426;2023-03-20T00:33:43;101841.72;;;7.82;100.00
63006;BME280;53704;52.532;6.426;2023-03-20T00:36:09;101841.81;;;7.80;100.00
63006;BME280;53704;52.532;6.426;2023-03-20T00:38:35;101846.00;;;7.95;100.00
63006;BME280;53704;52.532;6.426;2023-03-20T00:41:00;101853.03;;;7.85;100.00
63006;BME280;53704;52.532;6.426;2023-03-20T00:43:26;101866.63;;;7.48;100.00
63006;BME280;53704;52.532;6.426;2023-03-20T00:45:51;101869.72;;;7.66;100.00
63006;BME280;53704;52.532;6.426;2023-03-20T00:48:17;101869.47;;;7.69;100.00
63006;BME280;53704;52.532;6.426;2023-03-20T00:50:42;101868.88;;;7.66;100.00
63006;BME280;53704;52.532;6.426;2023-03-20T00:53:10;101870.66;;;7.65;100.00
63006;BME280;53704;52.532;6.426;2023-03-20T00:55:36;101878.72;;;7.65;100.00
63006;BME280;53704;52.532;6.426;2023-03-20T00:58:03;101869.13;;;7.74;100.00
63006;BME280;53704;52.532;6.426;2023-03-20T01:02:56;101867.03;;;7.89;100.00
63006;BME280;53704;52.532;6.426;2023-03-20T01:05:22;101878.13;;;7.84;100.00
63006;BME280;53704;52.532;6.426;2023-03-20T01:07:48;101876.09;;;7.88;100.00
63006;BME280;53704;52.532;6.426;2023-03-20T01:10:15;101876.31;;;7.85;100.00
63006;BME280;53704;52.532;6.426;2023-03-20T01:12:43;101876.44;;;7.94;100.00
63006;BME280;53704;52.532;6.426;2023-03-20T01:15:16;101872.03;;;7.93;100.00
63006;BME280;53704;52.532;6.426;2023-03-20T01:17:43;101889.00;;;7.94;100.00
63006;BME280;53704;52.532;6.426;2023-03-20T01:20:24;101891.94;;;7.91;100.00
63006;BME280;53704;52.532;6.426;2023-03-20T01:22:50;101893.00;;;7.88;100.00
63006;BME280;53704;52.532;6.426;2023-03-20T01:25:16;101897.66;;;7.86;100.00
63006;BME280;53704;52.532;6.426;2023-03-20T01:27:44;101909.81;;;7.90;100.00
63006;BME280;53704;52.532;6.426;2023-03-20T01:30:31;101915.41;;;7.76;100.00
63006;BME280;53704;52.532;6.426;2023-03-20T01:32:58;101911.50;;;7.69;100.00
63006;BME280;53704;52.532;6.426;2023-03-20T01:35:27;101920.88;;;7.74;100.00
63006;BME280;53704;52.532;6.426;2023-03-20T01:37:54;101910.81;;;7.78;100.00
63006;BME280;53704;52.532;6.426;2023-03-20T01:40:31;101903.97;;;7.85;100.00
63006;BME280;53704;52.532;6.426;2023-03-20T01:42:58;101911.03;;;7.75;100.00
63006;BME280;53704;52.532;6.426;2023-03-20T01:45:32;101913.66;;;7.64;100.00
63006;BME280;53704;52.532;6.426;2023-03-20T01:47:59;101913.66;;;7.64;100.00
63006;BME280;53704;52.532;6.426;2023-03-20T01:50:29;101909.19;;;7.64;100.00
63006;BME280;53704;52.532;6.426;2023-03-20T01:53:08;101907.22;;;7.55;100.00
63006;BME280;53704;52.532;6.426;2023-03-20T01:55:37;101905.06;;;7.83;100.00
63006;BME280;53704;52.532;6.426;2023-03-20T01:58:07;101892.66;;;8.04;100.00
63006;BME280;53704;52.532;6.426;2023-03-20T02:00:34;101891.34;;;7.99;100.00
63006;BME280;53704;52.532;6.426;2023-03-20T02:03:01;101898.69;;;7.61;100.00
63006;BME280;53704;52.532;6.426;2023-03-20T02:05:28;101896.16;;;7.71;100.00
63006;BME280;53704;52.532;6.426;2023-03-20T02:08:08;101896.16;;;7.71;100.00
63006;BME280;53704;52.532;6.426;2023-03-20T02:10:36;101888.38;;;7.90;100.00
63006;BME280;53704;52.532;6.426;2023-03-20T02:13:02;101881.78;;;7.72;100.00
63006;BME280;53704;52.532;6.426;2023-03-20T02:15:29;101878.34;;;7.70;100.00
63006;BME280;53704;52.532;6.426;2023-03-20T02:17:55;101879.03;;;7.49;100.00
63006;BME280;53704;52.532;6.426;2023-03-20T02:44:40;101842.13;;;7.41;100.00
63006;BME280;53704;52.532;6.426;2023-03-20T02:47:31;101842.88;;;7.43;100.00
63006;BME280;53704;52.532;6.426;2023-03-20T02:50:31;101836.47;;;7.69;100.00
63006;BME280;53704;52.532;6.426;2023-03-20T02:56:13;101822.06;;;7.70;100.00
63006;BME280;53704;52.532;6.426;2023-03-20T03:01:42;101835.44;;;7.47;100.00
63006;BME280;53704;52.532;6.426;2023-03-20T03:04:17;101839.97;;;7.47;100.00
63006;BME280;53704;52.532;6.426;2023-03-20T03:06:47;101834.97;;;7.53;100.00
63006;BME280;53704;52.532;6.426;2023-03-20T03:09:33;101835.69;;;7.55;100.00
63006;BME280;53704;52.532;6.426;2023-03-20T03:12:05;101824.59;;;7.37;100.00
63006;BME280;53704;52.532;6.426;2023-03-20T03:14:43;101831.78;;;7.37;100.00
63006;BME280;53704;52.532;6.426;2023-03-20T03:17:12;101834.59;;;7.35;100.00
63006;BME280;53704;52.532;6.426;2023-03-20T03:19:43;101831.25;;;7.20;100.00
63006;BME280;53704;52.532;6.426;2023-03-20T03:22:10;101826.03;;;7.30;100.00
63006;BME280;53704;52.532;6.426;2023-03-20T03:24:38;101819.34;;;7.36;100.00
63006;BME280;53704;52.532;6.426;2023-03-20T03:27:20;101820.41;;;7.22;100.00
63006;BME280;53704;52.532;6.426;2023-03-20T03:29:52;101810.81;;;7.31;100.00
63006;BME280;53704;52.532;6.426;2023-03-20T03:32:34;101810.41;;;7.24;100.00
63006;BME280;53704;52.532;6.426;2023-03-20T03:35:03;101801.44;;;7.36;100.00
63006;BME280;53704;52.532;6.426;2023-03-20T03:37:57;101795.81;;;7.17;100.00
63006;BME280;53704;52.532;6.426;2023-03-20T03:41:17;101791.63;;;7.48;100.00
63006;BME280;53704;52.532;6.426;2023-03-20T03:46:15;101786.59;;;7.32;100.00
63006;BME280;53704;52.532;6.426;2023-03-20T03:48:47;101785.94;;;7.17;100.00
63006;BME280;53704;52.532;6.426;2023-03-20T03:51:17;101780.47;;;7.19;100.00
63006;BME280;53704;52.532;6.426;2023-03-20T03:53:48;101786.44;;;7.22;100.00
63006;BME280;53704;52.532;6.426;2023-03-20T03:56:19;101796.06;;;7.25;100.00
63006;BME280;53704;52.532;6.426;2023-03-20T03:58:51;101792.03;;;7.19;100.00
63006;BME280;53704;52.532;6.426;2023-03-20T04:01:19;101786.19;;;7.14;100.00
63006;BME280;53704;52.532;6.426;2023-03-20T04:03:49;101780.63;;;7.40;100.00
63006;BME280;53704;52.532;6.426;2023-03-20T04:06:17;101766.25;;;7.41;100.00
63006;BME280;53704;52.532;6.426;2023-03-20T04:08:43;101775.66;;;7.35;100.00
63006;BME280;53704;52.532;6.426;2023-03-20T04:11:19;101772.19;;;7.11;100.00
63006;BME280;53704;52.532;6.426;2023-03-20T04:13:47;101758.09;;;7.20;100.00
63006;BME280;53704;52.532;6.426;2023-03-20T04:16:14;101765.97;;;7.10;100.00
63006;BME280;53704;52.532;6.426;2023-03-20T04:18:40;101771.59;;;7.30;100.00
63006;BME280;53704;52.532;6.426;2023-03-20T04:21:06;101775.50;;;7.25;100.00
63006;BME280;53704;52.532;6.426;2023-03-20T04:23:32;101774.50;;;7.15;100.00
63006;BME280;53704;52.532;6.426;2023-03-20T04:25:58;101777.06;;;7.17;100.00
63006;BME280;53704;52.532;6.426;2023-03-20T04:28:24;101776.06;;;7.06;100.00
63006;BME280;53704;52.532;6.426;2023-03-20T04:30:54;101778.00;;;7.04;100.00
63006;BME280;53704;52.532;6.426;2023-03-20T04:33:20;101759.88;;;7.08;100.00
63006;BME280;53704;52.532;6.426;2023-03-20T04:35:45;101769.59;;;6.98;100.00
63006;BME280;53704;52.532;6.426;2023-03-20T04:38:11;101768.16;;;7.16;100.00
63006;BME280;53704;52.532;6.426;2023-03-20T04:40:37;101770.78;;;6.94;100.00
63006;BME280;53704;52.532;6.426;2023-03-20T04:43:02;101765.19;;;6.97;100.00
63006;BME280;53704;52.532;6.426;2023-03-20T04:45:27;101765.75;;;7.13;100.00
63006;BME280;53704;52.532;6.426;2023-03-20T04:47:53;101768.31;;;7.15;100.00
63006;BME280;53704;52.532;6.426;2023-03-20T04:50:18;101766.72;;;7.12;100.00
63006;BME280;53704;52.532;6.426;2023-03-20T04:52:44;101766.34;;;7.05;100.00
63006;BME280;53704;52.532;6.426;2023-03-20T04:55:09;101771.91;;;7.02;100.00
63006;BME280;53704;52.532;6.426;2023-03-20T04:57:35;101761.06;;;6.93;100.00
63006;BME280;53704;52.532;6.426;2023-03-20T05:00:00;101760.28;;;6.79;100.00
63006;BME280;53704;52.532;6.426;2023-03-20T05:02:26;101759.56;;;6.77;100.00
63006;BME280;53704;52.532;6.426;2023-03-20T05:04:51;101758.84;;;6.86;100.00
63006;BME280;53704;52.532;6.426;2023-03-20T05:07:17;101758.28;;;6.70;100.00
63006;BME280;53704;52.532;6.426;2023-03-20T05:09:42;101747.41;;;6.96;100.00
63006;BME280;53704;52.532;6.426;2023-03-20T05:12:08;101762.25;;;6.88;100.00
63006;BME280;53704;52.532;6.426;2023-03-20T05:14:34;101753.41;;;6.99;100.00
63006;BME280;53704;52.532;6.426;2023-03-20T05:17:00;101753.78;;;7.06;100.00
63006;BME280;53704;52.532;6.426;2023-03-20T05:19:25;101758.66;;;7.01;100.00
63006;BME280;53704;52.532;6.426;2023-03-20T05:21:51;101754.53;;;6.73;100.00
63006;BME280;53704;52.532;6.426;2023-03-20T05:24:17;101751.56;;;6.88;100.00
63006;BME280;53704;52.532;6.426;2023-03-20T05:26:42;101752.72;;;6.73;100.00
63006;BME280;53704;52.532;6.426;2023-03-20T05:29:07;101762.91;;;6.68;100.00
63006;BME280;53704;52.532;6.426;2023-03-20T05:31:33;101758.28;;;6.70;100.00
63006;BME280;53704;52.532;6.426;2023-03-20T05:33:58;101772.25;;;6.62;100.00
63006;BME280;53704;52.532;6.426;2023-03-20T05:36:23;101768.88;;;6.72;100.00
63006;BME280;53704;52.532;6.426;2023-03-20T05:38:49;101768.22;;;6.57;100.00
63006;BME280;53704;52.532;6.426;2023-03-20T05:41:15;101768.41;;;6.42;100.00
63006;BME280;53704;52.532;6.426;2023-03-20T05:43:40;101769.75;;;6.48;100.00
63006;BME280;53704;52.532;6.426;2023-03-20T05:46:06;101766.34;;;6.46;100.00
63006;BME280;53704;52.532;6.426;2023-03-20T05:48:31;101772.34;;;6.61;100.00
63006;BME280;53704;52.532;6.426;2023-03-20T05:50:56;101777.94;;;6.58;100.00
63006;BME280;53704;52.532;6.426;2023-03-20T05:53:22;101766.47;;;6.44;100.00
63006;BME280;53704;52.532;6.426;2023-03-20T05:55:47;101769.22;;;6.67;100.00
63006;BME280;53704;52.532;6.426;2023-03-20T05:58:13;101759.91;;;6.73;100.00
63006;BME280;53704;52.532;6.426;2023-03-20T06:00:38;101765.81;;;6.65;100.00
63006;BME280;53704;52.532;6.426;2023-03-20T06:03:04;101768.16;;;6.69;100.00
63006;BME280;53704;52.532;6.426;2023-03-20T06:05:31;101763.72;;;6.57;100.00
63006;BME280;53704;52.532;6.426;2023-03-20T06:07:57;101768.03;;;6.71;100.00
63006;BME280;53704;52.532;6.426;2023-03-20T06:10:23;101777.78;;;6.72;100.00
63006;BME280;53704;52.532;6.426;2023-03-20T06:12:48;101773.63;;;6.68;100.00
63006;BME280;53704;52.532;6.426;2023-03-20T06:15:14;101779.31;;;6.63;100.00
63006;BME280;53704;52.532;6.426;2023-03-20T06:17:40;101782.59;;;6.67;100.00
63006;BME280;53704;52.532;6.426;2023-03-20T06:20:06;101781.38;;;6.60;100.00
63006;BME280;53704;52.532;6.426;2023-03-20T06:22:32;101782.03;;;6.75;100.00
63006;BME280;53704;52.532;6.426;2023-03-20T06:24:58;101784.63;;;6.87;100.00
63006;BME280;53704;52.532;6.426;2023-03-20T06:27:23;101780.72;;;6.80;100.00
63006;BME280;53704;52.532;6.426;2023-03-20T06:29:48;101784.38;;;6.79;100.00
63006;BME280;53704;52.532;6.426;2023-03-20T06:32:14;101783.19;;;6.83;100.00
63006;BME280;53704;52.532;6.426;2023-03-20T06:34:41;101785.63;;;6.86;100.00
63006;BME280;53704;52.532;6.426;2023-03-20T06:37:06;101795.22;;;6.89;100.00
63006;BME280;53704;52.532;6.426;2023-03-20T06:39:32;101782.19;;;6.84;100.00
63006;BME280;53704;52.532;6.426;2023-03-20T06:41:57;101791.97;;;6.97;100.00
63006;BME280;53704;52.532;6.426;2023-03-20T06:44:23;101789.75;;;6.91;100.00
63006;BME280;53704;52.532;6.426;2023-03-20T06:46:48;101798.16;;;6.97;100.00
63006;BME280;53704;52.532;6.426;2023-03-20T06:49:14;101794.75;;;6.95;100.00
63006;BME280;53704;52.532;6.426;2023-03-20T06:51:41;101794.22;;;6.79;100.00
63006;BME280;53704;52.532;6.426;2023-03-20T06:54:06;101797.53;;;6.82;100.00
63006;BME280;53704;52.532;6.426;2023-03-20T06:56:31;101799.97;;;6.85;100.00
63006;BME280;53704;52.532;6.426;2023-03-20T06:58:57;101795.38;;;6.99;100.00
63006;BME280;53704;52.532;6.426;2023-03-20T07:01:22;101794.28;;;6.90;100.00
63006;BME280;53704;52.532;6.426;2023-03-20T07:03:48;101802.31;;;6.90;100.00
63006;BME280;53704;52.532;6.426;2023-03-20T07:06:15;101801.69;;;6.86;100.00
63006;BME280;53704;52.532;6.426;2023-03-20T07:08:42;101808.66;;;7.00;100.00
63006;BME280;53704;52.532;6.426;2023-03-20T07:11:09;101805.63;;;7.05;100.00
63006;BME280;53704;52.532;6.426;2023-03-20T07:13:35;101797.94;;;7.00;100.00
63006;BME280;53704;52.532;6.426;2023-03-20T07:16:01;101796.63;;;7.06;100.00
63006;BME280;53704;52.532;6.426;2023-03-20T07:18:26;101796.28;;;7.11;100.00
63006;BME280;53704;52.532;6.426;2023-03-20T07:20:53;101796.63;;;7.06;100.00
63006;BME280;53704;52.532;6.426;2023-03-20T07:23:22;101801.47;;;6.90;100.00
63006;BME280;53704;52.532;6.426;2023-03-20T07:25:47;101800.91;;;7.09;100.00
63006;BME280;53704;52.532;6.426;2023-03-20T07:28:13;101808.03;;;6.97;100.00
63006;BME280;53704;52.532;6.426;2023-03-20T07:30:38;101807.56;;;7.03;100.00
63006;BME280;53704;52.532;6.426;2023-03-20T07:33:03;101806.19;;;7.21;100.00
63006;BME280;53704;52.532;6.426;2023-03-20T07:35:29;101805.47;;;7.31;100.00
63006;BME280;53704;52.532;6.426;2023-03-20T07:37:55;101801.06;;;7.18;100.00
63006;BME280;53704;52.532;6.426;2023-03-20T07:40:20;101798.41;;;7.30;100.00
63006;BME280;53704;52.532;6.426;2023-03-20T07:42:45;101806.91;;;7.23;100.00
63006;BME280;53704;52.532;6.426;2023-03-20T07:45:14;101804.34;;;7.33;100.00
63006;BME280;53704;52.532;6.426;2023-03-20T07:47:42;101805.22;;;7.34;100.00
63006;BME280;53704;52.532;6.426;2023-03-20T07:50:08;101803.03;;;7.39;100.00
63006;BME280;53704;52.532;6.426;2023-03-20T07:52:34;101810.34;;;7.37;100.00
63006;BME280;53704;52.532;6.426;2023-03-20T07:55:00;101806.22;;;7.44;100.00
63006;BME280;53704;52.532;6.426;2023-03-20T07:57:25;101807.94;;;7.45;100.00
63006;BME280;53704;52.532;6.426;2023-03-20T07:59:50;101815.72;;;7.48;100.00
63006;BME280;53704;52.532;6.426;2023-03-20T08:02:17;101807.44;;;7.51;100.00
63006;BME280;53704;52.532;6.426;2023-03-20T08:04:43;101811.59;;;7.67;100.00
63006;BME280;53704;52.532;6.426;2023-03-20T08:07:09;101800.38;;;7.84;100.00
63006;BME280;53704;52.532;6.426;2023-03-20T08:09:35;101806.38;;;7.76;100.00
63006;BME280;53704;52.532;6.426;2023-03-20T08:12:01;101807.47;;;7.74;100.00
63006;BME280;53704;52.532;6.426;2023-03-20T08:14:27;101820.25;;;7.70;100.00
63006;BME280;53704;52.532;6.426;2023-03-20T08:16:52;101814.91;;;7.82;100.00
63006;BME280;53704;52.532;6.426;2023-03-20T08:19:18;101810.88;;;7.76;100.00
63006;BME280;53704;52.532;6.426;2023-03-20T08:21:43;101812.47;;;7.90;100.00
63006;BME280;53704;52.532;6.426;2023-03-20T08:24:09;101819.28;;;7.83;100.00
63006;BME280;53704;52.532;6.426;2023-03-20T08:26:34;101805.63;;;7.86;100.00
63006;BME280;53704;52.532;6.426;2023-03-20T08:29:00;101805.53;;;7.99;100.00
63006;BME280;53704;52.532;6.426;2023-03-20T08:31:26;101811.47;;;8.02;100.00
63006;BME280;53704;52.532;6.426;2023-03-20T08:33:51;101816.94;;;8.12;100.00
63006;BME280;53704;52.532;6.426;2023-03-20T08:36:17;101819.25;;;8.28;100.00
63006;BME280;53704;52.532;6.426;2023-03-20T08:38:49;101815.88;;;8.14;100.00
63006;BME280;53704;52.532;6.426;2023-03-20T08:41:16;101822.06;;;8.26;100.00
63006;BME280;53704;52.532;6.426;2023-03-20T08:43:41;101819.09;;;8.41;100.00
63006;BME280;53704;52.532;6.426;2023-03-20T08:46:07;101821.66;;;8.54;100.00
63006;BME280;53704;52.532;6.426;2023-03-20T08:48:33;101812.28;;;8.48;100.00
63006;BME280;53704;52.532;6.426;2023-03-20T08:50:58;101809.88;;;8.33;100.00
63006;BME280;53704;52.532;6.426;2023-03-20T08:53:24;101814.84;;;8.49;100.00
63006;BME280;53704;52.532;6.426;2023-03-20T08:55:50;101813.34;;;8.57;100.00
63006;BME280;53704;52.532;6.426;2023-03-20T08:58:17;101811.53;;;8.57;100.00
63006;BME280;53704;52.532;6.426;2023-03-20T09:00:42;101815.16;;;8.67;100.00
63006;BME280;53704;52.532;6.426;2023-03-20T09:03:15;101812.16;;;8.49;100.00
63006;BME280;53704;52.532;6.426;2023-03-20T09:05:49;101814.44;;;8.65;100.00
63006;BME280;53704;52.532;6.426;2023-03-20T09:08:16;101809.81;;;8.56;100.00
63006;BME280;53704;52.532;6.426;2023-03-20T09:10:42;101809.06;;;8.65;100.00
63006;BME280;53704;52.532;6.426;2023-03-20T09:13:08;101812.72;;;8.64;100.00
63006;BME280;53704;52.532;6.426;2023-03-20T09:15:34;101805.25;;;8.79;100.00
63006;BME280;53704;52.532;6.426;2023-03-20T09:18:00;101802.38;;;8.92;100.00
63006;BME280;53704;52.532;6.426;2023-03-20T09:20:25;101803.28;;;8.81;100.00
63006;BME280;53704;52.532;6.426;2023-03-20T09:22:51;101802.13;;;8.95;100.00
63006;BME280;53704;52.532;6.426;2023-03-20T09:25:16;101801.44;;;8.82;100.00
63006;BME280;53704;52.532;6.426;2023-03-20T09:27:42;101798.38;;;9.08;100.00
63006;BME280;53704;52.532;6.426;2023-03-20T09:30:08;101797.66;;;9.05;100.00
63006;BME280;53704;52.532;6.426;2023-03-20T09:32:35;101803.06;;;9.27;100.00
63006;BME280;53704;52.532;6.426;2023-03-20T09:35:01;101792.00;;;9.30;100.00
63006;BME280;53704;52.532;6.426;2023-03-20T09:37:27;101783.97;;;9.51;100.00
63006;BME280;53704;52.532;6.426;2023-03-20T09:39:52;101785.72;;;9.62;100.00
63006;BME280;53704;52.532;6.426;2023-03-20T09:48:08;101782.25;;;9.50;100.00
63006;BME280;53704;52.532;6.426;2023-03-20T09:50:31;101779.31;;;9.63;100.00
63006;BME280;53704;52.532;6.426;2023-03-20T09:53:10;101782.94;;;9.73;100.00
63006;BME280;53704;52.532;6.426;2023-03-20T09:55:41;101776.47;;;9.85;100.00
63006;BME280;53704;52.532;6.426;2023-03-20T09:58:19;101783.25;;;10.30;100.00
63006;BME280;53704;52.532;6.426;2023-03-20T10:00:45;101786.75;;;10.11;100.00
63006;BME280;53704;52.532;6.426;2023-03-20T10:08:26;101787.72;;;10.10;100.00
63006;BME280;53704;52.532;6.426;2023-03-20T10:13:38;101806.53;;;10.00;100.00
63006;BME280;53704;52.532;6.426;2023-03-20T10:19:15;101798.56;;;10.29;100.00
63006;BME280;53704;52.532;6.426;2023-03-20T10:21:45;101794.91;;;10.40;100.00
63006;BME280;53704;52.532;6.426;2023-03-20T10:24:17;101805.09;;;9.96;100.00
63006;BME280;53704;52.532;6.426;2023-03-20T10:26:46;101792.53;;;10.06;100.00
63006;BME280;53704;52.532;6.426;2023-03-20T10:31:53;101796.06;;;10.07;100.00
63006;BME280;53704;52.532;6.426;2023-03-20T10:34:43;101802.25;;;9.57;100.00
63006;BME280;53704;52.532;6.426;2023-03-20T10:40:30;101796.38;;;9.73;100.00
63006;BME280;53704;52.532;6.426;2023-03-20T10:42:39;101794.78;;;10.01;100.00
63006;BME280;53704;52.532;6.426;2023-03-20T10:47:46;101797.91;;;10.06;100.00
63006;BME280;53704;52.532;6.426;2023-03-20T10:50:19;101798.41;;;10.31;100.00
63006;BME280;53704;52.532;6.426;2023-03-20T10:52:48;101804.91;;;10.19;100.00
63006;BME280;53704;52.532;6.426;2023-03-20T10:55:27;101799.16;;;10.02;100.00
63006;BME280;53704;52.532;6.426;2023-03-20T11:00:34;101797.03;;;9.65;100.00
63006;BME280;53704;52.532;6.426;2023-03-20T11:02:59;101792.50;;;9.66;100.00
63006;BME280;53704;52.532;6.426;2023-03-20T11:05:33;101782.16;;;9.92;100.00
63006;BME280;53704;52.532;6.426;2023-03-20T11:08:05;101790.84;;;10.15;100.00
63006;BME280;53704;52.532;6.426;2023-03-20T11:10:34;101780.75;;;9.98;100.00
63006;BME280;53704;52.532;6.426;2023-03-20T11:13:27;101781.47;;;10.00;100.00
63006;BME280;53704;52.532;6.426;2023-03-20T11:15:54;101792.53;;;10.06;100.00
63006;BME280;53704;52.532;6.426;2023-03-20T11:18:23;101799.97;;;9.93;100.00
63006;BME280;53704;52.532;6.426;2023-03-20T11:20:53;101796.25;;;9.74;100.00
63006;BME280;53704;52.532;6.426;2023-03-20T11:23:26;101796.84;;;9.88;100.00
63006;BME280;53704;52.532;6.426;2023-03-20T11:28:37;101789.56;;;9.69;100.00
63006;BME280;53704;52.532;6.426;2023-03-20T11:33:35;101789.78;;;9.87;100.00
63006;BME280;53704;52.532;6.426;2023-03-20T11:36:09;101793.72;;;10.23;100.00
63006;BME280;53704;52.532;6.426;2023-03-20T11:38:42;101791.88;;;10.24;100.00
63006;BME280;53704;52.532;6.426;2023-03-20T11:41:22;101796.31;;;9.94;100.00
63006;BME280;53704;52.532;6.426;2023-03-20T11:43:48;101784.81;;;9.82;100.00
63006;BME280;53704;52.532;6.426;2023-03-20T11:46:14;101773.94;;;9.93;100.00
63006;BME280;53704;52.532;6.426;2023-03-20T11:48:41;101780.53;;;10.20;100.00
63006;BME280;53704;52.532;6.426;2023-03-20T11:51:10;101780.09;;;9.74;100.00
63006;BME280;53704;52.532;6.426;2023-03-20T11:56:26;101787.72;;;10.50;100.00
63006;BME280;53704;52.532;6.426;2023-03-20T11:59:13;101787.16;;;9.75;100.00
63006;BME280;53704;52.532;6.426;2023-03-20T12:01:42;101783.00;;;9.92;100.00
63006;BME280;53704;52.532;6.426;2023-03-20T12:04:30;101781.06;;;10.04;100.00
63006;BME280;53704;52.532;6.426;2023-03-20T12:07:05;101782.63;;;10.07;100.00
63006;BME280;53704;52.532;6.426;2023-03-20T12:10:01;101788.41;;;10.02;100.00
63006;BME280;53704;52.532;6.426;2023-03-20T12:15:28;101786.03;;;9.68;100.00
63006;BME280;53704;52.532;6.426;2023-03-20T12:17:56;101777.69;;;9.71;100.00
63006;BME280;53704;52.532;6.426;2023-03-20T12:20:38;101779.50;;;10.11;100.00
63006;BME280;53704;52.532;6.426;2023-03-20T12:25:56;101776.13;;;10.09;100.00
63006;BME280;53704;52.532;6.426;2023-03-20T12:33:47;101775.75;;;9.93;100.00
63006;BME280;53704;52.532;6.426;2023-03-20T12:36:17;101768.22;;;10.27;100.00
63006;BME280;53704;52.532;6.426;2023-03-20T12:38:45;101771.72;;;10.18;100.00
63006;BME280;53704;52.532;6.426;2023-03-20T12:41:29;101768.22;;;9.77;100.00
63006;BME280;53704;52.532;6.426;2023-03-20T12:46:42;101764.03;;;9.94;100.00
63006;BME280;53704;52.532;6.426;2023-03-20T12:49:26;101756.13;;;10.12;100.00
63006;BME280;53704;52.532;6.426;2023-03-20T12:52:33;101749.06;;;10.01;100.00
63006;BME280;53704;52.532;6.426;2023-03-20T12:55:14;101747.22;;;10.11;100.00
63006;BME280;53704;52.532;6.426;2023-03-20T13:00:36;101745.53;;;9.60;100.00
63006;BME280;53704;52.532;6.426;2023-03-20T13:14:39;101739.78;;;9.44;100.00
63006;BME280;53704;52.532;6.426;2023-03-20T13:17:15;101744.31;;;9.43;100.00
63006;BME280;53704;52.532;6.426;2023-03-20T13:19:59;101743.31;;;9.44;100.00
63006;BME280;53704;52.532;6.426;2023-03-20T13:22:48;101741.09;;;9.28;100.00
63006;BME280;53704;52.532;6.426;2023-03-20T13:38:55;101731.06;;;9.61;100.00
63006;BME280;53704;52.532;6.426;2023-03-20T13:41:24;101732.31;;;9.26;100.00
63006;BME280;53704;52.532;6.426;2023-03-20T13:43:55;101741.66;;;8.80;100.00
63006;BME280;53704;52.532;6.426;2023-03-20T13:46:32;101725.59;;;9.11;100.00
63006;BME280;53704;52.532;6.426;2023-03-20T13:49:36;101724.47;;;9.13;100.00
63006;BME280;53704;52.532;6.426;2023-03-20T13:52:15;101725.91;;;8.96;100.00
63006;BME280;53704;52.532;6.426;2023-03-20T14:03:16;101712.16;;;9.11;100.00
63006;BME280;53704;52.532;6.426;2023-03-20T14:05:44;101715.09;;;9.29;100.00
63006;BME280;53704;52.532;6.426;2023-03-20T14:08:31;101709.50;;;8.90;100.00
63006;BME280;53704;52.532;6.426;2023-03-20T14:16:16;101712.50;;;9.17;100.00
63006;BME280;53704;52.532;6.426;2023-03-20T14:18:46;101710.22;;;9.13;100.00
63006;BME280;53704;52.532;6.426;2023-03-20T14:21:14;101711.84;;;9.04;100.00
63006;BME280;53704;52.532;6.426;2023-03-20T14:23:51;101707.88;;;9.29;100.00
63006;BME280;53704;52.532;6.426;2023-03-20T14:26:37;101706.66;;;9.12;100.00
63006;BME280;53704;52.532;6.426;2023-03-20T14:31:34;101715.38;;;8.62;100.00
63006;BME280;53704;52.532;6.426;2023-03-20T14:37:00;101703.91;;;9.02;100.00
63006;BME280;53704;52.532;6.426;2023-03-20T14:39:42;101717.34;;;8.60;100.00
63006;BME280;53704;52.532;6.426;2023-03-20T14:42:48;101717.63;;;8.78;100.00
63006;BME280;53704;52.532;6.426;2023-03-20T14:45:33;101714.66;;;8.60;100.00
63006;BME280;53704;52.532;6.426;2023-03-20T14:48:10;101713.16;;;8.67;100.00
63006;BME280;53704;52.532;6.426;2023-03-20T14:53:23;101705.69;;;8.39;100.00
63006;BME280;53704;52.532;6.426;2023-03-20T14:58:50;101713.28;;;8.66;100.00
63006;BME280;53704;52.532;6.426;2023-03-20T15:06:50;101700.25;;;8.61;100.00
63006;BME280;53704;52.532;6.426;2023-03-20T15:09:19;101702.47;;;8.56;100.00
63006;BME280;53704;52.532;6.426;2023-03-20T15:11:46;101703.06;;;8.60;100.00
63006;BME280;53704;52.532;6.426;2023-03-20T15:14:19;101704.00;;;8.70;100.00
63006;BME280;53704;52.532;6.426;2023-03-20T15:16:46;101691.34;;;8.82;100.00
63006;BME280;53704;52.532;6.426;2023-03-20T15:19:21;101700.50;;;8.58;100.00
63006;BME280;53704;52.532;6.426;2023-03-20T15:21:47;101687.88;;;8.70;100.00
63006;BME280;53704;52.532;6.426;2023-03-20T15:24:28;101691.16;;;8.53;100.00
63006;BME280;53704;52.532;6.426;2023-03-20T15:26:57;101690.50;;;8.60;100.00
63006;BME280;53704;52.532;6.426;2023-03-20T15:29:23;101701.88;;;8.53;100.00
63006;BME280;53704;52.532;6.426;2023-03-20T15:31:53;101688.22;;;8.77;100.00